sensor_id;sensor_type;location;lat;lon;timestamp;P1;durP1;ratioP1;P2;durP2;ratioP2
62509;SDS011;48558;48.242;11.654;2023-05-20T00:00:45;1.85;;;1.55;;
62509;SDS011;48558;48.242;11.654;2023-05-20T00:05:00;1.75;;;1.65;;
62509;SDS011;48558;48.242;11.654;2023-05-20T00:09:13;2.72;;;1.98;;
62509;SDS011;48558;48.242;11.654;2023-05-20T00:13:27;2.05;;;1.95;;
62509;SDS011;48558;48.242;11.654;2023-05-20T00:17:40;1.80;;;1.70;;
62509;SDS011;48558;48.242;11.654;2023-05-20T00:21:53;1.95;;;1.85;;
62509;SDS011;48558;48.242;11.654;2023-05-20T00:26:05;1.95;;;1.85;;
62509;SDS011;48558;48.242;11.654;2023-05-20T00:30:18;1.98;;;1.88;;
62509;SDS011;48558;48.242;11.654;2023-05-20T00:34:41;1.67;;;1.58;;
62509;SDS011;48558;48.242;11.654;2023-05-20T00:38:55;1.83;;;1.73;;
62509;SDS011;48558;48.242;11.654;2023-05-20T00:43:08;2.15;;;2.05;;
62509;SDS011;48558;48.242;11.654;2023-05-20T00:47:31;1.85;;;1.75;;
62509;SDS011;48558;48.242;11.654;2023-05-20T00:51:45;2.33;;;2.13;;
62509;SDS011;48558;48.242;11.654;2023-05-20T00:55:58;1.73;;;1.63;;
62509;SDS011;48558;48.242;11.654;2023-05-20T01:00:11;1.88;;;1.77;;
62509;SDS011;48558;48.242;11.654;2023-05-20T01:04:25;2.17;;;2.00;;
62509;SDS011;48558;48.242;11.654;2023-05-20T01:08:38;2.00;;;1.80;;
62509;SDS011;48558;48.242;11.654;2023-05-20T01:12:53;2.13;;;1.83;;
62509;SDS011;48558;48.242;11.654;2023-05-20T01:17:08;2.55;;;2.30;;
62509;SDS011;48558;48.242;11.654;2023-05-20T01:21:23;2.33;;;2.13;;
62509;SDS011;48558;48.242;11.654;2023-05-20T01:25:38;2.65;;;2.33;;
62509;SDS011;48558;48.242;11.654;2023-05-20T01:30:01;4.72;;;2.45;;
62509;SDS011;48558;48.242;11.654;2023-05-20T01:34:13;2.28;;;2.08;;
62509;SDS011;48558;48.242;11.654;2023-05-20T01:38:26;1.92;;;1.83;;
62509;SDS011;48558;48.242;11.654;2023-05-20T01:42:44;2.53;;;2.20;;
62509;SDS011;48558;48.242;11.654;2023-05-20T01:46:58;2.20;;;1.98;;
62509;SDS011;48558;48.242;11.654;2023-05-20T01:51:12;2.20;;;2.10;;
62509;SDS011;48558;48.242;11.654;2023-05-20T01:55:25;2.05;;;1.85;;
62509;SDS011;48558;48.242;11.654;2023-05-20T01:59:38;2.42;;;1.83;;
62509;SDS011;48558;48.242;11.654;2023-05-20T02:04:00;1.90;;;1.80;;
62509;SDS011;48558;48.242;11.654;2023-05-20T02:08:13;2.17;;;2.00;;
62509;SDS011;48558;48.242;11.654;2023-05-20T02:12:25;2.72;;;2.13;;
62509;SDS011;48558;48.242;11.654;2023-05-20T02:16:38;2.20;;;2.03;;
62509;SDS011;48558;48.242;11.654;2023-05-20T02:21:03;2.50;;;2.30;;
62509;SDS011;48558;48.242;11.654;2023-05-20T02:29:35;2.88;;;2.60;;
62509;SDS011;48558;48.242;11.654;2023-05-20T02:33:48;2.10;;;1.90;;
62509;SDS011;48558;48.242;11.654;2023-05-20T02:38:00;2.08;;;1.92;;
62509;SDS011;48558;48.242;11.654;2023-05-20T02:42:13;2.78;;;2.58;;
62509;SDS011;48558;48.242;11.654;2023-05-20T02:46:25;2.17;;;2.08;;
62509;SDS011;48558;48.242;11.654;2023-05-20T02:50:48;2.72;;;2.40;;
62509;SDS011;48558;48.242;11.654;2023-05-20T02:55:01;2.65;;;2.45;;
62509;SDS011;48558;48.242;11.654;2023-05-20T02:59:14;2.38;;;2.22;;
62509;SDS011;48558;48.242;11.654;2023-05-20T03:03:27;2.42;;;2.13;;
62509;SDS011;48558;48.242;11.654;2023-05-20T03:07:40;3.38;;;2.60;;
62509;SDS011;48558;48.242;11.654;2023-05-20T03:11:52;4.25;;;2.65;;
62509;SDS011;48558;48.242;11.654;2023-05-20T03:16:05;2.50;;;2.30;;
62509;SDS011;48558;48.242;11.654;2023-05-20T03:20:18;2.95;;;2.75;;
62509;SDS011;48558;48.242;11.654;2023-05-20T03:24:31;2.60;;;2.40;;
62509;SDS011;48558;48.242;11.654;2023-05-20T03:28:44;4.90;;;2.97;;
62509;SDS011;48558;48.242;11.654;2023-05-20T03:33:05;2.58;;;2.38;;
62509;SDS011;48558;48.242;11.654;2023-05-20T03:37:18;2.55;;;2.35;;
62509;SDS011;48558;48.242;11.654;2023-05-20T03:41:36;2.67;;;2.47;;
62509;SDS011;48558;48.242;11.654;2023-05-20T03:45:49;2.90;;;2.67;;
62509;SDS011;48558;48.242;11.654;2023-05-20T03:50:01;3.00;;;2.80;;
62509;SDS011;48558;48.242;11.654;2023-05-20T03:54:24;2.85;;;2.65;;
62509;SDS011;48558;48.242;11.654;2023-05-20T03:58:37;2.90;;;2.70;;
62509;SDS011;48558;48.242;11.654;2023-05-20T04:02:50;2.80;;;2.53;;
62509;SDS011;48558;48.242;11.654;2023-05-20T04:07:03;3.53;;;3.20;;
62509;SDS011;48558;48.242;11.654;2023-05-20T04:11:16;3.05;;;2.65;;
62509;SDS011;48558;48.242;11.654;2023-05-20T04:15:28;3.00;;;2.55;;
62509;SDS011;48558;48.242;11.654;2023-05-20T04:19:41;2.90;;;2.70;;
62509;SDS011;48558;48.242;11.654;2023-05-20T04:23:56;3.35;;;2.58;;
62509;SDS011;48558;48.242;11.654;2023-05-20T04:28:08;3.28;;;2.80;;
62509;SDS011;48558;48.242;11.654;2023-05-20T04:32:21;3.30;;;3.00;;
62509;SDS011;48558;48.242;11.654;2023-05-20T04:36:34;2.67;;;2.47;;
62509;SDS011;48558;48.242;11.654;2023-05-20T04:40:49;3.90;;;2.65;;
62509;SDS011;48558;48.242;11.654;2023-05-20T04:45:11;4.07;;;3.05;;
62509;SDS011;48558;48.242;11.654;2023-05-20T04:49:32;5.78;;;3.08;;
62509;SDS011;48558;48.242;11.654;2023-05-20T04:53:45;3.38;;;2.92;;
62509;SDS011;48558;48.242;11.654;2023-05-20T04:57:58;3.45;;;3.15;;
62509;SDS011;48558;48.242;11.654;2023-05-20T05:02:10;3.45;;;2.92;;
62509;SDS011;48558;48.242;11.654;2023-05-20T05:06:23;4.03;;;3.47;;
62509;SDS011;48558;48.242;11.654;2023-05-20T05:10:35;3.58;;;3.28;;
62509;SDS011;48558;48.242;11.654;2023-05-20T05:14:48;5.88;;;4.05;;
62509;SDS011;48558;48.242;11.654;2023-05-20T05:19:01;3.42;;;2.97;;
62509;SDS011;48558;48.242;11.654;2023-05-20T05:23:22;7.18;;;4.10;;
62509;SDS011;48558;48.242;11.654;2023-05-20T05:27:45;5.93;;;4.20;;
62509;SDS011;48558;48.242;11.654;2023-05-20T05:32:00;6.80;;;4.20;;
62509;SDS011;48558;48.242;11.654;2023-05-20T05:36:23;3.67;;;2.95;;
62509;SDS011;48558;48.242;11.654;2023-05-20T05:40:37;6.47;;;4.97;;
62509;SDS011;48558;48.242;11.654;2023-05-20T05:44:59;4.32;;;3.92;;
62509;SDS011;48558;48.242;11.654;2023-05-20T05:49:12;4.53;;;3.85;;
62509;SDS011;48558;48.242;11.654;2023-05-20T05:53:34;5.47;;;4.70;;
62509;SDS011;48558;48.242;11.654;2023-05-20T05:57:47;5.68;;;4.68;;
62509;SDS011;48558;48.242;11.654;2023-05-20T06:02:05;4.45;;;4.05;;
62509;SDS011;48558;48.242;11.654;2023-05-20T06:06:18;6.75;;;5.00;;
62509;SDS011;48558;48.242;11.654;2023-05-20T06:10:30;5.05;;;4.55;;
62509;SDS011;48558;48.242;11.654;2023-05-20T06:14:43;5.53;;;4.53;;
62509;SDS011;48558;48.242;11.654;2023-05-20T06:18:55;4.40;;;4.00;;
62509;SDS011;48558;48.242;11.654;2023-05-20T06:23:21;5.13;;;4.53;;
62509;SDS011;48558;48.242;11.654;2023-05-20T06:27:33;4.68;;;4.28;;
62509;SDS011;48558;48.242;11.654;2023-05-20T06:31:46;5.32;;;4.72;;
62509;SDS011;48558;48.242;11.654;2023-05-20T06:35:58;5.15;;;4.68;;
62509;SDS011;48558;48.242;11.654;2023-05-20T06:40:13;6.28;;;4.40;;
62509;SDS011;48558;48.242;11.654;2023-05-20T06:44:25;5.70;;;4.32;;
62509;SDS011;48558;48.242;11.654;2023-05-20T06:48:38;6.05;;;4.68;;
62509;SDS011;48558;48.242;11.654;2023-05-20T06:53:00;5.50;;;4.60;;
62509;SDS011;48558;48.242;11.654;2023-05-20T06:57:23;4.95;;;4.53;;
62509;SDS011;48558;48.242;11.654;2023-05-20T07:01:45;4.47;;;4.05;;
62509;SDS011;48558;48.242;11.654;2023-05-20T07:06:08;4.38;;;3.97;;
62509;SDS011;48558;48.242;11.654;2023-05-20T07:10:21;4.05;;;3.67;;
62509;SDS011;48558;48.242;11.654;2023-05-20T07:14:34;3.70;;;3.35;;
62509;SDS011;48558;48.242;11.654;2023-05-20T07:18:46;4.50;;;3.72;;
62509;SDS011;48558;48.242;11.654;2023-05-20T07:23:09;3.67;;;3.38;;
62509;SDS011;48558;48.242;11.654;2023-05-20T07:27:22;4.05;;;3.70;;
62509;SDS011;48558;48.242;11.654;2023-05-20T07:31:35;3.75;;;3.45;;
62509;SDS011;48558;48.242;11.654;2023-05-20T07:35:48;3.13;;;2.92;;
62509;SDS011;48558;48.242;11.654;2023-05-20T07:40:00;3.33;;;3.03;;
62509;SDS011;48558;48.242;11.654;2023-05-20T07:44:23;4.78;;;3.60;;
62509;SDS011;48558;48.242;11.654;2023-05-20T07:48:36;3.47;;;3.17;;
62509;SDS011;48558;48.242;11.654;2023-05-20T07:52:49;3.75;;;3.45;;
62509;SDS011;48558;48.242;11.654;2023-05-20T07:57:07;3.73;;;3.43;;
62509;SDS011;48558;48.242;11.654;2023-05-20T08:01:19;3.05;;;2.85;;
62509;SDS011;48558;48.242;11.654;2023-05-20T08:05:32;3.53;;;3.22;;
62509;SDS011;48558;48.242;11.654;2023-05-20T08:09:48;3.63;;;3.25;;
62509;SDS011;48558;48.242;11.654;2023-05-20T08:14:00;3.22;;;2.80;;
62509;SDS011;48558;48.242;11.654;2023-05-20T08:18:14;4.10;;;2.92;;
62509;SDS011;48558;48.242;11.654;2023-05-20T08:22:26;3.38;;;3.00;;
62509;SDS011;48558;48.242;11.654;2023-05-20T08:26:39;3.13;;;2.72;;
62509;SDS011;48558;48.242;11.654;2023-05-20T08:30:52;4.03;;;2.95;;
62509;SDS011;48558;48.242;11.654;2023-05-20T08:35:06;2.83;;;2.58;;
62509;SDS011;48558;48.242;11.654;2023-05-20T08:39:19;4.05;;;2.65;;
62509;SDS011;48558;48.242;11.654;2023-05-20T08:43:31;2.90;;;2.65;;
62509;SDS011;48558;48.242;11.654;2023-05-20T08:47:54;2.65;;;2.45;;
62509;SDS011;48558;48.242;11.654;2023-05-20T08:52:07;2.83;;;2.63;;
62509;SDS011;48558;48.242;11.654;2023-05-20T08:56:23;2.35;;;2.22;;
62509;SDS011;48558;48.242;11.654;2023-05-20T09:04:54;2.92;;;2.70;;
62509;SDS011;48558;48.242;11.654;2023-05-20T09:09:07;3.55;;;3.25;;
62509;SDS011;48558;48.242;11.654;2023-05-20T09:13:31;3.15;;;2.70;;
62509;SDS011;48558;48.242;11.654;2023-05-20T09:17:44;3.10;;;2.80;;
62509;SDS011;48558;48.242;11.654;2023-05-20T09:22:10;2.40;;;2.20;;
62509;SDS011;48558;48.242;11.654;2023-05-20T09:26:25;2.67;;;2.47;;
62509;SDS011;48558;48.242;11.654;2023-05-20T09:30:41;3.67;;;2.83;;
62509;SDS011;48558;48.242;11.654;2023-05-20T09:35:06;2.83;;;2.60;;
62509;SDS011;48558;48.242;11.654;2023-05-20T09:39:28;2.50;;;2.35;;
62509;SDS011;48558;48.242;11.654;2023-05-20T09:43:45;2.28;;;2.17;;
62509;SDS011;48558;48.242;11.654;2023-05-20T09:47:59;2.60;;;2.40;;
62509;SDS011;48558;48.242;11.654;2023-05-20T09:52:14;2.88;;;2.67;;
62509;SDS011;48558;48.242;11.654;2023-05-20T09:56:31;2.50;;;2.30;;
62509;SDS011;48558;48.242;11.654;2023-05-20T10:00:46;2.35;;;2.15;;
62509;SDS011;48558;48.242;11.654;2023-05-20T10:05:08;4.88;;;2.33;;
62509;SDS011;48558;48.242;11.654;2023-05-20T10:23:51;2.55;;;2.35;;
62509;SDS011;48558;48.242;11.654;2023-05-20T10:28:06;3.00;;;2.70;;
62509;SDS011;48558;48.242;11.654;2023-05-20T10:32:26;2.28;;;2.15;;
62509;SDS011;48558;48.242;11.654;2023-05-20T10:36:46;2.67;;;2.47;;
62509;SDS011;48558;48.242;11.654;2023-05-20T10:41:09;2.42;;;2.22;;
62509;SDS011;48558;48.242;11.654;2023-05-20T10:45:28;2.30;;;2.10;;
62509;SDS011;48558;48.242;11.654;2023-05-20T10:49:51;2.28;;;2.08;;
62509;SDS011;48558;48.242;11.654;2023-05-20T10:54:13;3.08;;;2.42;;
62509;SDS011;48558;48.242;11.654;2023-05-20T10:58:26;2.00;;;1.90;;
62509;SDS011;48558;48.242;11.654;2023-05-20T11:02:38;2.05;;;1.77;;
62509;SDS011;48558;48.242;11.654;2023-05-20T11:06:52;3.75;;;1.60;;
62509;SDS011;48558;48.242;11.654;2023-05-20T11:11:15;1.60;;;1.50;;
62509;SDS011;48558;48.242;11.654;2023-05-20T11:15:27;1.80;;;1.70;;
62509;SDS011;48558;48.242;11.654;2023-05-20T11:19:41;2.05;;;1.95;;
62509;SDS011;48558;48.242;11.654;2023-05-20T11:23:54;2.20;;;2.10;;
62509;SDS011;48558;48.242;11.654;2023-05-20T11:28:08;2.00;;;1.90;;
62509;SDS011;48558;48.242;11.654;2023-05-20T11:32:26;2.33;;;2.22;;
62509;SDS011;48558;48.242;11.654;2023-05-20T11:36:41;2.03;;;1.92;;
62509;SDS011;48558;48.242;11.654;2023-05-20T11:40:54;2.65;;;2.45;;
62509;SDS011;48558;48.242;11.654;2023-05-20T11:45:12;4.97;;;3.13;;
62509;SDS011;48558;48.242;11.654;2023-05-20T11:49:25;2.45;;;2.25;;
62509;SDS011;48558;48.242;11.654;2023-05-20T11:53:39;2.55;;;2.35;;
62509;SDS011;48558;48.242;11.654;2023-05-20T11:58:02;2.50;;;2.40;;
62509;SDS011;48558;48.242;11.654;2023-05-20T12:02:15;2.53;;;2.35;;
62509;SDS011;48558;48.242;11.654;2023-05-20T12:06:35;2.63;;;2.42;;
62509;SDS011;48558;48.242;11.654;2023-05-20T12:10:48;2.90;;;2.70;;
62509;SDS011;48558;48.242;11.654;2023-05-20T12:15:01;2.90;;;2.65;;
62509;SDS011;48558;48.242;11.654;2023-05-20T12:19:15;2.70;;;2.50;;
62509;SDS011;48558;48.242;11.654;2023-05-20T12:23:28;3.25;;;2.92;;
62509;SDS011;48558;48.242;11.654;2023-05-20T12:27:45;3.35;;;3.15;;
62509;SDS011;48558;48.242;11.654;2023-05-20T12:31:59;3.17;;;2.88;;
62509;SDS011;48558;48.242;11.654;2023-05-20T12:36:12;3.28;;;3.08;;
62509;SDS011;48558;48.242;11.654;2023-05-20T12:40:35;3.92;;;2.88;;
62509;SDS011;48558;48.242;11.654;2023-05-20T12:44:49;3.33;;;2.95;;
62509;SDS011;48558;48.242;11.654;2023-05-20T12:49:02;2.97;;;2.47;;
62509;SDS011;48558;48.242;11.654;2023-05-20T12:53:15;3.13;;;2.83;;
62509;SDS011;48558;48.242;11.654;2023-05-20T12:57:27;2.95;;;2.75;;
62509;SDS011;48558;48.242;11.654;2023-05-20T13:01:41;3.03;;;2.72;;
62509;SDS011;48558;48.242;11.654;2023-05-20T13:05:53;4.70;;;2.90;;
62509;SDS011;48558;48.242;11.654;2023-05-20T13:10:06;3.10;;;2.78;;
62509;SDS011;48558;48.242;11.654;2023-05-20T13:14:19;3.22;;;2.92;;
62509;SDS011;48558;48.242;11.654;2023-05-20T13:18:32;3.45;;;2.97;;
62509;SDS011;48558;48.242;11.654;2023-05-20T13:22:45;5.22;;;2.58;;
62509;SDS011;48558;48.242;11.654;2023-05-20T13:31:16;2.65;;;2.45;;
62509;SDS011;48558;48.242;11.654;2023-05-20T13:35:29;3.20;;;3.00;;
62509;SDS011;48558;48.242;11.654;2023-05-20T13:39:41;3.00;;;2.80;;
62509;SDS011;48558;48.242;11.654;2023-05-20T13:43:54;2.90;;;2.70;;
62509;SDS011;48558;48.242;11.654;2023-05-20T13:48:06;3.20;;;2.90;;
62509;SDS011;48558;48.242;11.654;2023-05-20T13:52:21;3.30;;;3.00;;
62509;SDS011;48558;48.242;11.654;2023-05-20T13:56:42;4.47;;;3.45;;
62509;SDS011;48558;48.242;11.654;2023-05-20T14:00:55;3.30;;;3.00;;
62509;SDS011;48558;48.242;11.654;2023-05-20T14:05:08;3.38;;;3.00;;
62509;SDS011;48558;48.242;11.654;2023-05-20T14:09:21;3.47;;;3.17;;
62509;SDS011;48558;48.242;11.654;2023-05-20T14:13:33;4.50;;;3.15;;
62509;SDS011;48558;48.242;11.654;2023-05-20T14:17:56;4.05;;;3.10;;
62509;SDS011;48558;48.242;11.654;2023-05-20T14:22:09;2.80;;;2.60;;
62509;SDS011;48558;48.242;11.654;2023-05-20T14:26:25;2.75;;;2.55;;
62509;SDS011;48558;48.242;11.654;2023-05-20T14:30:45;3.13;;;2.88;;
62509;SDS011;48558;48.242;11.654;2023-05-20T14:34:57;6.40;;;3.40;;
62509;SDS011;48558;48.242;11.654;2023-05-20T14:39:11;5.25;;;3.78;;
62509;SDS011;48558;48.242;11.654;2023-05-20T14:43:23;3.42;;;3.13;;
62509;SDS011;48558;48.242;11.654;2023-05-20T14:47:36;4.03;;;3.65;;
62509;SDS011;48558;48.242;11.654;2023-05-20T14:51:51;3.10;;;2.85;;
62509;SDS011;48558;48.242;11.654;2023-05-20T14:56:03;3.20;;;2.85;;
62509;SDS011;48558;48.242;11.654;2023-05-20T15:00:16;3.10;;;2.90;;
62509;SDS011;48558;48.242;11.654;2023-05-20T15:04:29;3.40;;;3.10;;
62509;SDS011;48558;48.242;11.654;2023-05-20T15:08:41;3.78;;;3.47;;
62509;SDS011;48558;48.242;11.654;2023-05-20T15:12:54;3.10;;;2.85;;
62509;SDS011;48558;48.242;11.654;2023-05-20T15:17:06;4.50;;;3.35;;
62509;SDS011;48558;48.242;11.654;2023-05-20T15:21:19;3.22;;;2.90;;
62509;SDS011;48558;48.242;11.654;2023-05-20T15:25:32;3.63;;;3.17;;
62509;SDS011;48558;48.242;11.654;2023-05-20T15:29:45;5.22;;;3.03;;
62509;SDS011;48558;48.242;11.654;2023-05-20T15:34:09;3.03;;;2.80;;
62509;SDS011;48558;48.242;11.654;2023-05-20T15:38:32;3.50;;;3.20;;
62509;SDS011;48558;48.242;11.654;2023-05-20T15:42:44;3.25;;;3.03;;
62509;SDS011;48558;48.242;11.654;2023-05-20T15:46:58;4.07;;;3.63;;
62509;SDS011;48558;48.242;11.654;2023-05-20T15:51:10;6.68;;;3.50;;
62509;SDS011;48558;48.242;11.654;2023-05-20T15:55:24;3.40;;;3.10;;
62509;SDS011;48558;48.242;11.654;2023-05-20T15:59:36;3.42;;;3.13;;
62509;SDS011;48558;48.242;11.654;2023-05-20T16:03:59;3.95;;;3.03;;
62509;SDS011;48558;48.242;11.654;2023-05-20T16:08:11;2.80;;;2.60;;
62509;SDS011;48558;48.242;11.654;2023-05-20T16:12:24;3.20;;;3.00;;
62509;SDS011;48558;48.242;11.654;2023-05-20T16:16:37;7.65;;;2.75;;
62509;SDS011;48558;48.242;11.654;2023-05-20T16:20:50;4.43;;;3.15;;
62509;SDS011;48558;48.242;11.654;2023-05-20T16:25:03;5.50;;;3.22;;
62509;SDS011;48558;48.242;11.654;2023-05-20T16:29:22;3.70;;;3.40;;
62509;SDS011;48558;48.242;11.654;2023-05-20T16:33:36;3.75;;;3.35;;
62509;SDS011;48558;48.242;11.654;2023-05-20T16:37:59;5.18;;;3.58;;
62509;SDS011;48558;48.242;11.654;2023-05-20T16:42:12;3.70;;;3.13;;
62509;SDS011;48558;48.242;11.654;2023-05-20T16:46:25;3.55;;;3.25;;
62509;SDS011;48558;48.242;11.654;2023-05-20T16:50:37;3.75;;;3.45;;
62509;SDS011;48558;48.242;11.654;2023-05-20T16:59:19;5.53;;;3.58;;
62509;SDS011;48558;48.242;11.654;2023-05-20T17:03:32;4.25;;;3.58;;
62509;SDS011;48558;48.242;11.654;2023-05-20T17:07:46;4.20;;;3.35;;
62509;SDS011;48558;48.242;11.654;2023-05-20T17:12:01;4.88;;;3.47;;
62509;SDS011;48558;48.242;11.654;2023-05-20T17:16:15;3.38;;;3.08;;
62509;SDS011;48558;48.242;11.654;2023-05-20T17:20:27;4.43;;;3.78;;
62509;SDS011;48558;48.242;11.654;2023-05-20T17:24:40;5.05;;;3.63;;
62509;SDS011;48558;48.242;11.654;2023-05-20T17:28:53;5.03;;;3.20;;
62509;SDS011;48558;48.242;11.654;2023-05-20T17:33:05;4.25;;;3.85;;
62509;SDS011;48558;48.242;11.654;2023-05-20T17:37:18;4.20;;;3.45;;
62509;SDS011;48558;48.242;11.654;2023-05-20T17:41:40;6.60;;;3.63;;
62509;SDS011;48558;48.242;11.654;2023-05-20T17:45:53;5.20;;;3.67;;
62509;SDS011;48558;48.242;11.654;2023-05-20T17:50:07;4.70;;;4.20;;
62509;SDS011;48558;48.242;11.654;2023-05-20T17:54:21;4.35;;;3.60;;
62509;SDS011;48558;48.242;11.654;2023-05-20T17:58:33;4.20;;;3.65;;
62509;SDS011;48558;48.242;11.654;2023-05-20T18:02:46;5.50;;;4.00;;
62509;SDS011;48558;48.242;11.654;2023-05-20T18:06:59;4.25;;;3.85;;
62509;SDS011;48558;48.242;11.654;2023-05-20T18:11:12;4.68;;;3.75;;
62509;SDS011;48558;48.242;11.654;2023-05-20T18:15:24;4.22;;;3.83;;
62509;SDS011;48558;48.242;11.654;2023-05-20T18:19:37;4.68;;;3.85;;
62509;SDS011;48558;48.242;11.654;2023-05-20T18:23:49;5.95;;;4.10;;
62509;SDS011;48558;48.242;11.654;2023-05-20T18:28:02;4.30;;;3.90;;
62509;SDS011;48558;48.242;11.654;2023-05-20T18:32:15;9.43;;;3.83;;
62509;SDS011;48558;48.242;11.654;2023-05-20T18:36:28;3.78;;;3.47;;
62509;SDS011;48558;48.242;11.654;2023-05-20T18:40:41;5.63;;;4.18;;
62509;SDS011;48558;48.242;11.654;2023-05-20T18:44:53;5.10;;;4.07;;
62509;SDS011;48558;48.242;11.654;2023-05-20T18:49:06;5.07;;;3.90;;
62509;SDS011;48558;48.242;11.654;2023-05-20T18:53:29;4.43;;;4.00;;
62509;SDS011;48558;48.242;11.654;2023-05-20T18:57:41;5.53;;;3.88;;
62509;SDS011;48558;48.242;11.654;2023-05-20T19:01:54;7.70;;;4.65;;
62509;SDS011;48558;48.242;11.654;2023-05-20T19:06:07;5.22;;;4.47;;
62509;SDS011;48558;48.242;11.654;2023-05-20T19:10:19;5.00;;;4.00;;
62509;SDS011;48558;48.242;11.654;2023-05-20T19:14:33;4.93;;;4.20;;
62509;SDS011;48558;48.242;11.654;2023-05-20T19:18:48;5.25;;;4.10;;
62509;SDS011;48558;48.242;11.654;2023-05-20T19:23:01;4.43;;;3.83;;
62509;SDS011;48558;48.242;11.654;2023-05-20T19:27:14;5.78;;;3.88;;
62509;SDS011;48558;48.242;11.654;2023-05-20T19:31:26;4.55;;;4.03;;
62509;SDS011;48558;48.242;11.654;2023-05-20T19:35:40;7.57;;;4.53;;
62509;SDS011;48558;48.242;11.654;2023-05-20T19:39:53;5.07;;;4.05;;
62509;SDS011;48558;48.242;11.654;2023-05-20T19:44:08;5.20;;;4.07;;
62509;SDS011;48558;48.242;11.654;2023-05-20T19:48:21;4.35;;;3.95;;
62509;SDS011;48558;48.242;11.654;2023-05-20T19:52:34;4.88;;;4.20;;
62509;SDS011;48558;48.242;11.654;2023-05-20T19:56:47;7.68;;;3.78;;
62509;SDS011;48558;48.242;11.654;2023-05-20T20:00:59;5.32;;;4.75;;
62509;SDS011;48558;48.242;11.654;2023-05-20T20:05:13;5.03;;;4.43;;
62509;SDS011;48558;48.242;11.654;2023-05-20T20:09:26;4.88;;;4.10;;
62509;SDS011;48558;48.242;11.654;2023-05-20T20:13:38;5.72;;;4.53;;
62509;SDS011;48558;48.242;11.654;2023-05-20T20:17:51;6.88;;;4.43;;
62509;SDS011;48558;48.242;11.654;2023-05-20T20:22:04;6.28;;;3.97;;
62509;SDS011;48558;48.242;11.654;2023-05-20T20:26:17;5.05;;;4.45;;
62509;SDS011;48558;48.242;11.654;2023-05-20T20:30:34;4.95;;;4.15;;
62509;SDS011;48558;48.242;11.654;2023-05-20T20:34:47;4.75;;;4.13;;
62509;SDS011;48558;48.242;11.654;2023-05-20T20:39:00;8.25;;;3.78;;
62509;SDS011;48558;48.242;11.654;2023-05-20T20:43:16;6.38;;;4.85;;
62509;SDS011;48558;48.242;11.654;2023-05-20T20:47:31;5.50;;;4.35;;
62509;SDS011;48558;48.242;11.654;2023-05-20T20:51:44;4.90;;;4.20;;
62509;SDS011;48558;48.242;11.654;2023-05-20T20:56:08;6.10;;;4.97;;
62509;SDS011;48558;48.242;11.654;2023-05-20T21:00:27;4.85;;;4.35;;
62509;SDS011;48558;48.242;11.654;2023-05-20T21:04:40;5.57;;;4.38;;
62509;SDS011;48558;48.242;11.654;2023-05-20T21:08:53;4.47;;;4.07;;
62509;SDS011;48558;48.242;11.654;2023-05-20T21:13:09;6.03;;;4.07;;
62509;SDS011;48558;48.242;11.654;2023-05-20T21:17:21;4.63;;;4.15;;
62509;SDS011;48558;48.242;11.654;2023-05-20T21:21:44;5.68;;;4.22;;
62509;SDS011;48558;48.242;11.654;2023-05-20T21:25:57;4.15;;;3.67;;
62509;SDS011;48558;48.242;11.654;2023-05-20T21:30:09;7.93;;;4.50;;
62509;SDS011;48558;48.242;11.654;2023-05-20T21:34:23;4.65;;;4.05;;
62509;SDS011;48558;48.242;11.654;2023-05-20T21:38:35;4.18;;;3.78;;
62509;SDS011;48558;48.242;11.654;2023-05-20T21:42:48;4.63;;;4.10;;
62509;SDS011;48558;48.242;11.654;2023-05-20T21:47:00;5.63;;;4.15;;
62509;SDS011;48558;48.242;11.654;2023-05-20T21:51:23;13.13;;;4.03;;
62509;SDS011;48558;48.242;11.654;2023-05-20T21:55:35;4.72;;;3.63;;
62509;SDS011;48558;48.242;11.654;2023-05-20T21:59:48;4.30;;;3.90;;
62509;SDS011;48558;48.242;11.654;2023-05-20T22:04:04;4.82;;;3.75;;
62509;SDS011;48558;48.242;11.654;2023-05-20T22:08:17;5.30;;;4.22;;
62509;SDS011;48558;48.242;11.654;2023-05-20T22:12:42;9.25;;;3.92;;
62509;SDS011;48558;48.242;11.654;2023-05-20T22:16:55;5.00;;;3.80;;
62509;SDS011;48558;48.242;11.654;2023-05-20T22:21:12;4.50;;;3.80;;
62509;SDS011;48558;48.242;11.654;2023-05-20T22:25:25;5.40;;;3.60;;
62509;SDS011;48558;48.242;11.654;2023-05-20T22:29:38;3.65;;;3.30;;
62509;SDS011;48558;48.242;11.654;2023-05-20T22:33:50;4.35;;;3.72;;
62509;SDS011;48558;48.242;11.654;2023-05-20T22:38:03;4.20;;;3.80;;
62509;SDS011;48558;48.242;11.654;2023-05-20T22:42:26;5.88;;;4.15;;
62509;SDS011;48558;48.242;11.654;2023-05-20T22:46:39;4.63;;;3.88;;
62509;SDS011;48558;48.242;11.654;2023-05-20T22:50:51;3.97;;;3.50;;
62509;SDS011;48558;48.242;11.654;2023-05-20T22:55:05;3.83;;;3.42;;
62509;SDS011;48558;48.242;11.654;2023-05-20T22:59:18;3.90;;;3.50;;
62509;SDS011;48558;48.242;11.654;2023-05-20T23:03:32;3.90;;;3.58;;
62509;SDS011;48558;48.242;11.654;2023-05-20T23:07:44;4.07;;;3.47;;
62509;SDS011;48558;48.242;11.654;2023-05-20T23:12:07;4.55;;;3.88;;
62509;SDS011;48558;48.242;11.654;2023-05-20T23:16:20;4.38;;;3.60;;
62509;SDS011;48558;48.242;11.654;2023-05-20T23:20:32;3.95;;;3.55;;
62509;SDS011;48558;48.242;11.654;2023-05-20T23:24:55;3.65;;;3.00;;
62509;SDS011;48558;48.242;11.654;2023-05-20T23:29:08;4.00;;;3.63;;
62509;SDS011;48558;48.242;11.654;2023-05-20T23:33:21;4.68;;;3.33;;
62509;SDS011;48558;48.242;11.654;2023-05-20T23:37:36;3.83;;;3.28;;
62509;SDS011;48558;48.242;11.654;2023-05-20T23:41:49;3.65;;;3.35;;
62509;SDS011;48558;48.242;11.654;2023-05-20T23:46:02;6.43;;;3.50;;
62509;SDS011;48558;48.242;11.654;2023-05-20T23:50:15;6.68;;;3.20;;
62509;SDS011;48558;48.242;11.654;2023-05-20T23:54:27;3.13;;;2.83;;
62509;SDS011;48558;48.242;11.654;2023-05-20T23:58:40;4.00;;;3.60;;
